createdAt,value
2023-01-15T00:02:37.976Z,11.52
2023-01-15T00:08:09.694Z,11.52
2023-01-15T00:13:41.666Z,11.51
2023-01-15T00:19:17.512Z,11.49
2023-01-15T00:24:49.451Z,11.56
2023-01-15T00:30:20.949Z,11.58
2023-01-15T00:35:52.931Z,11.53
2023-01-15T00:41:24.532Z,11.55
2023-01-15T00:46:56.127Z,11.71
2023-01-15T00:52:27.860Z,11.85
2023-01-15T00:57:59.751Z,11.82
2023-01-15T01:03:31.508Z,11.96
2023-01-15T01:09:03.044Z,12.02
2023-01-15T01:14:34.780Z,11.94
2023-01-15T01:20:11.171Z,11.98
2023-01-15T01:25:42.628Z,12.04
2023-01-15T01:31:14.454Z,12.11
2023-01-15T01:36:46.088Z,12.2
2023-01-15T01:42:17.814Z,12.13
2023-01-15T01:47:49.688Z,12.14
2023-01-15T01:53:21.284Z,12.19
2023-01-15T01:58:53.158Z,12.22
2023-01-15T02:04:28.777Z,12.28
2023-01-15T02:09:56.640Z,12.34
2023-01-15T02:15:28.195Z,12.39
2023-01-15T02:21:04.304Z,12.44
2023-01-15T02:26:36.135Z,12.34
2023-01-15T02:32:07.757Z,12.36
2023-01-15T02:37:39.420Z,12.38
2023-01-15T02:43:11.137Z,12.46
2023-01-15T02:48:42.990Z,12.52
2023-01-15T02:54:14.745Z,12.44
2023-01-15T02:59:46.570Z,12.54
2023-01-15T03:05:18.194Z,12.66
2023-01-15T03:10:50.131Z,12.61
2023-01-15T03:16:21.538Z,12.5
2023-01-15T03:21:58.409Z,12.5
2023-01-15T03:27:29.337Z,12.59
2023-01-15T03:33:01.048Z,12.59
2023-01-15T03:38:32.835Z,12.73
2023-01-15T03:44:04.711Z,12.75
2023-01-15T03:49:36.476Z,12.83
2023-01-15T03:55:07.984Z,12.64
2023-01-15T04:00:40.113Z,12.65
2023-01-15T04:06:11.408Z,12.68
2023-01-15T04:11:43.301Z,12.75
2023-01-15T04:17:15.192Z,12.72
2023-01-15T04:22:51.167Z,12.75
2023-01-15T04:28:23.194Z,12.64
2023-01-15T04:33:54.442Z,12.8
2023-01-15T04:39:26.471Z,12.82
2023-01-15T04:44:58.229Z,12.76
2023-01-15T04:50:29.826Z,12.65
2023-01-15T04:56:01.347Z,12.72
2023-01-15T05:01:33.177Z,12.57
2023-01-15T05:07:04.825Z,12.69
2023-01-15T05:12:36.549Z,11.33
2023-01-15T05:18:08.325Z,10.37
2023-01-15T05:23:46.680Z,10.24
2023-01-15T05:29:18.135Z,9.69
2023-01-15T05:34:49.881Z,9.53
2023-01-15T05:40:21.528Z,9.43
2023-01-15T05:45:53.208Z,9.55
2023-01-15T05:51:25.005Z,9.28
2023-01-15T05:56:56.664Z,9.11
2023-01-15T06:02:28.383Z,8.72
2023-01-15T06:08:01.325Z,8.59
2023-01-15T06:13:31.996Z,8.77
2023-01-15T06:19:03.561Z,8.61
2023-01-15T06:24:39.820Z,8.62
2023-01-15T06:30:11.438Z,8.43
2023-01-15T06:35:43.144Z,8.23
2023-01-15T06:41:14.899Z,8.13
2023-01-15T06:46:46.617Z,7.97
2023-01-15T06:52:18.494Z,7.72
2023-01-15T06:57:50.072Z,7.36
2023-01-15T07:03:21.779Z,7.44
2023-01-15T07:08:53.645Z,7.06
2023-01-15T07:14:25.244Z,7.06
2023-01-15T07:19:56.938Z,7.12
2023-01-15T07:25:33.210Z,7.0
2023-01-15T07:31:04.855Z,6.95
2023-01-15T07:36:36.594Z,6.93
2023-01-15T07:42:08.322Z,6.87
2023-01-15T07:47:40.028Z,6.98
2023-01-15T07:53:11.828Z,6.87
2023-01-15T07:58:43.456Z,6.69
2023-01-15T08:04:15.203Z,6.78
2023-01-15T08:09:46.887Z,6.68
2023-01-15T08:15:18.597Z,6.59
2023-01-15T08:20:50.464Z,6.42
2023-01-15T08:26:27.172Z,6.58
2023-01-15T08:31:58.218Z,6.47
2023-01-15T08:37:29.936Z,6.47
2023-01-15T08:43:01.674Z,6.52
2023-01-15T08:48:33.377Z,6.38
2023-01-15T08:54:05.172Z,6.37
2023-01-15T08:59:36.935Z,6.18
2023-01-15T09:05:08.648Z,6.15
2023-01-15T09:10:40.409Z,6.2
2023-01-15T09:16:12.232Z,6.29
2023-01-15T09:21:43.859Z,6.14
2023-01-15T09:27:21.897Z,6.25
2023-01-15T09:32:53.562Z,6.24
2023-01-15T09:38:25.353Z,6.35
2023-01-15T09:43:57.369Z,6.67
2023-01-15T09:49:28.769Z,6.15
2023-01-15T09:55:00.587Z,6.13
2023-01-15T10:00:32.213Z,6.04
2023-01-15T10:06:04.012Z,5.92
2023-01-15T10:11:35.932Z,6.08
2023-01-15T10:17:07.337Z,6.11
2023-01-15T10:22:39.325Z,6.22
2023-01-15T10:28:17.279Z,5.71
2023-01-15T10:33:47.037Z,5.6
2023-01-15T10:39:20.463Z,5.31
2023-01-15T10:44:50.942Z,5.18
2023-01-15T10:50:22.127Z,5.01
2023-01-15T10:55:53.820Z,4.86
2023-01-15T11:01:25.777Z,4.77
2023-01-15T11:06:57.463Z,4.83
2023-01-15T11:12:29.046Z,4.6
2023-01-15T11:18:00.717Z,4.35
2023-01-15T11:23:32.489Z,4.41
2023-01-15T11:29:10.730Z,4.5
2023-01-15T11:34:42.535Z,4.22
2023-01-15T11:40:15.108Z,4.39
2023-01-15T11:45:45.775Z,4.27
2023-01-15T11:51:17.678Z,4.22
2023-01-15T11:56:49.366Z,4.37
2023-01-15T12:02:20.984Z,4.37
2023-01-15T12:07:52.861Z,4.35
2023-01-15T12:13:24.385Z,4.35
2023-01-15T12:18:56.250Z,4.36
2023-01-15T12:24:27.943Z,4.54
2023-01-15T12:30:04.041Z,4.51
2023-01-15T12:35:36.177Z,4.66
2023-01-15T12:41:07.529Z,4.84
2023-01-15T12:46:39.272Z,4.83
2023-01-15T12:52:10.841Z,5.03
2023-01-15T12:57:42.563Z,5.17
2023-01-15T13:03:14.328Z,5.38
2023-01-15T13:08:46.125Z,5.38
2023-01-15T13:14:17.774Z,5.55
2023-01-15T13:19:49.496Z,5.57
2023-01-15T13:25:21.314Z,5.65
2023-01-15T13:30:59.496Z,5.63
2023-01-15T13:36:31.204Z,5.7
2023-01-15T13:42:02.797Z,5.96
2023-01-15T13:47:34.577Z,5.99
2023-01-15T13:53:06.351Z,6.26
2023-01-15T13:58:38.191Z,6.42
2023-01-15T14:04:09.867Z,6.55
2023-01-15T14:09:41.488Z,6.36
2023-01-15T14:15:13.289Z,6.44
2023-01-15T14:20:45.052Z,6.54
2023-01-15T14:26:16.789Z,6.34
2023-01-15T14:31:52.950Z,6.26
2023-01-15T14:37:24.788Z,6.24
2023-01-15T14:42:56.422Z,6.21
2023-01-15T14:48:28.215Z,6.23
2023-01-15T14:53:59.966Z,6.31
2023-01-15T14:59:31.698Z,6.18
2023-01-15T15:05:03.555Z,6.22
2023-01-15T15:10:35.261Z,6.19
2023-01-15T15:16:07.269Z,6.14
2023-01-15T15:21:38.705Z,6.05
2023-01-15T15:27:10.391Z,5.99
2023-01-15T15:32:46.396Z,5.99
2023-01-15T15:38:18.207Z,5.89
2023-01-15T15:43:49.862Z,5.84
2023-01-15T15:49:21.725Z,5.77
2023-01-15T15:54:53.439Z,5.66
2023-01-15T16:00:25.044Z,5.68
2023-01-15T16:05:56.745Z,5.73
2023-01-15T16:11:28.583Z,5.67
2023-01-15T16:17:00.335Z,5.8
2023-01-15T16:22:31.963Z,5.67
2023-01-15T16:28:03.771Z,5.52
2023-01-15T16:33:39.959Z,5.71
2023-01-15T16:39:11.555Z,5.57
2023-01-15T16:44:43.445Z,5.56
2023-01-15T16:50:15.068Z,5.52
2023-01-15T16:55:46.783Z,5.58
2023-01-15T17:01:18.688Z,5.55
2023-01-15T17:06:50.328Z,5.48
2023-01-15T17:12:21.937Z,5.53
2023-01-15T17:17:53.681Z,5.43
2023-01-15T17:23:25.637Z,5.17
2023-01-15T17:28:57.117Z,5.37
2023-01-15T17:34:35.241Z,5.2
2023-01-15T17:40:07.204Z,5.18
2023-01-15T17:45:38.815Z,5.03
2023-01-15T17:51:10.578Z,5.01
2023-01-15T17:56:42.377Z,5.12
2023-01-15T18:02:13.946Z,5.0
2023-01-15T18:07:45.637Z,5.0
2023-01-15T18:13:17.351Z,5.03
2023-01-15T18:18:49.046Z,5.0
2023-01-15T18:24:20.960Z,4.94
2023-01-15T18:29:52.904Z,4.89
2023-01-15T18:35:28.914Z,4.92
2023-01-15T18:41:00.561Z,4.82
2023-01-15T18:46:32.179Z,4.87
2023-01-15T18:52:04.007Z,4.84
2023-01-15T18:57:35.591Z,5.03
2023-01-15T19:03:07.424Z,5.08
2023-01-15T19:08:39.194Z,5.08
2023-01-15T19:14:10.895Z,4.98
2023-01-15T19:19:42.546Z,5.01
2023-01-15T19:25:14.806Z,4.86
2023-01-15T19:30:45.927Z,4.91
2023-01-15T19:36:22.075Z,4.94
2023-01-15T19:41:53.820Z,4.87
2023-01-15T19:47:25.723Z,4.89
2023-01-15T19:52:57.414Z,4.94
2023-01-15T19:58:29.123Z,4.89
2023-01-15T20:04:00.981Z,5.01
2023-01-15T20:09:32.426Z,4.88
2023-01-15T20:15:04.196Z,4.86
2023-01-15T20:20:36.408Z,4.76
2023-01-15T20:26:07.707Z,4.7
2023-01-15T20:31:40.487Z,4.74
2023-01-15T20:37:17.134Z,4.78
2023-01-15T20:42:48.546Z,4.75
2023-01-15T20:48:19.852Z,4.71
2023-01-15T20:53:51.615Z,4.65
2023-01-15T20:59:23.696Z,4.72
2023-01-15T21:04:55.228Z,4.66
2023-01-15T21:10:26.756Z,4.79
2023-01-15T21:15:58.588Z,4.57
2023-01-15T21:21:30.816Z,4.68
2023-01-15T21:27:02.177Z,4.6
2023-01-15T21:32:33.797Z,4.64
2023-01-15T21:38:09.942Z,4.72
2023-01-15T21:43:41.941Z,4.75
2023-01-15T21:49:13.418Z,4.97
2023-01-15T21:54:45.092Z,4.83
2023-01-15T22:00:16.800Z,4.85
2023-01-15T22:05:48.573Z,4.89
2023-01-15T22:11:20.343Z,4.79
2023-01-15T22:16:52.200Z,4.8
2023-01-15T22:22:24.630Z,4.75
2023-01-15T22:27:56.325Z,4.87
2023-01-15T22:33:28.178Z,4.81
2023-01-15T22:39:04.130Z,4.24
2023-01-15T22:44:35.879Z,4.2
2023-01-15T22:50:07.678Z,3.99
2023-01-15T22:55:39.298Z,3.94
2023-01-15T23:01:11.091Z,3.98
2023-01-15T23:06:42.876Z,4.07
2023-01-15T23:12:14.436Z,4.02
2023-01-15T23:17:46.189Z,4.03
2023-01-15T23:23:17.908Z,4.05
2023-01-15T23:28:49.581Z,4.07
2023-01-15T23:34:21.303Z,4.13
2023-01-15T23:39:57.464Z,4.15
2023-01-15T23:45:29.376Z,4.22
2023-01-15T23:51:01.090Z,4.27
2023-01-15T23:56:32.690Z,4.14
